• Join FlightAware (Why Join?)
  • Login
  • US Flag 
09:52PM EDT


 

Airport Tracker/Info


-or-


 

Live Flight TrackerFlight Track Log ✈ PGA603 ✈ 13-May-2012 ✈ EBBR / BRU - LPPR / OPO

Flight Track Log - Related Links

Times and Time Zones

All times are in EDT time to prevent confusion due to time zone crossing. See the PGA603 flight status page for this flight to view local times or setup timezone preferences in your user account.

Time Position Orientation Groundspeed Altitude Reporting Facility
EDT Latitude Longitude Course Direction KTS MPH feet Rate Location/Type
08:58AM 50.5928 3.9403 228° Southwest  Level Estimated
08:59AM 50.5244 3.8213 228° Southwest  Level Estimated
09:00AM 50.4559 3.7025 228° Southwest  Level Estimated
09:01AM 50.3872 3.5842 228° Southwest  Level Estimated
09:02AM 50.3185 3.4662 228° Southwest  Level Estimated
09:03AM 50.2496 3.3485 227° Southwest  Level Estimated
09:04AM 50.1806 3.2311 227° Southwest  Level Estimated
09:05AM 50.1115 3.1141 227° Southwest  Level Estimated
09:06AM 50.0422 2.9974 227° Southwest  Level Estimated
09:07AM 49.9729 2.8811 227° Southwest  Level Estimated
09:08AM 49.9034 2.7651 227° Southwest  Level Estimated
09:09AM 49.8338 2.6494 227° Southwest  Level Estimated
09:10AM 49.7641 2.5341 227° Southwest  Level Estimated
09:11AM 49.6943 2.4191 227° Southwest  Level Estimated
09:12AM 49.6244 2.3044 227° Southwest  Level Estimated
09:13AM 49.5543 2.1901 227° Southwest  Level Estimated
09:14AM 49.4842 2.0760 226° Southwest  Level Estimated
09:15AM 49.4139 1.9624 226° Southwest  Level Estimated
09:16AM 49.3436 1.8490 226° Southwest  Level Estimated
09:17AM 49.2731 1.7359 226° Southwest  Level Estimated
09:18AM 49.2025 1.6232 226° Southwest  Level Estimated
09:19AM 49.1318 1.5108 226° Southwest  Level Estimated
09:20AM 49.0609 1.3987 226° Southwest  Level Estimated
09:21AM 48.9900 1.2870 226° Southwest  Level Estimated
09:22AM 48.9190 1.1755 226° Southwest  Level Estimated
09:23AM 48.8479 1.0644 226° Southwest  Level Estimated
09:24AM 48.7766 0.9536 226° Southwest  Level Estimated
09:25AM 48.7053 0.8431 226° Southwest  Level Estimated
09:26AM 48.6338 0.7329 225° Southwest  Level Estimated
09:27AM 48.5622 0.6231 225° Southwest  Level Estimated
09:28AM 48.4906 0.5135 225° Southwest  Level Estimated
09:29AM 48.4188 0.4043 225° Southwest  Level Estimated
09:30AM 48.3469 0.2953 225° Southwest  Level Estimated
09:31AM 48.2750 0.1867 225° Southwest  Level Estimated
09:32AM 48.2029 0.0784 225° Southwest  Level Estimated
09:33AM 48.1307 -0.0297 225° Southwest  Level Estimated
09:34AM 48.0584 -0.1374 225° Southwest  Level Estimated
09:35AM 47.9860 -0.2448 225° Southwest  Level Estimated
09:36AM 47.9136 -0.3519 225° Southwest  Level Estimated
09:37AM 47.8410 -0.4587 225° Southwest  Level Estimated
09:38AM 47.7683 -0.5653 225° Southwest  Level Estimated
09:39AM 47.6955 -0.6715 224° Southwest  Level Estimated
09:40AM 47.6227 -0.7774 224° Southwest  Level Estimated
09:41AM 47.5497 -0.8830 224° Southwest  Level Estimated
09:42AM 47.4766 -0.9884 224° Southwest  Level Estimated
09:43AM 47.4035 -1.0934 224° Southwest  Level Estimated
09:44AM 47.3302 -1.1982 224° Southwest  Level Estimated
09:45AM 47.2568 -1.3026 224° Southwest  Level Estimated
09:46AM 47.1834 -1.4068 224° Southwest  Level Estimated
09:47AM 47.1098 -1.5107 224° Southwest  Level Estimated
09:48AM 47.0362 -1.6143 224° Southwest  Level Estimated
09:49AM 46.9625 -1.7176 224° Southwest  Level Estimated
09:50AM 46.8886 -1.8206 224° Southwest  Level Estimated
09:51AM 46.8147 -1.9233 224° Southwest  Level Estimated
09:52AM 46.7407 -2.0258 223° Southwest  Level Estimated
09:53AM 46.6666 -2.1280 223° Southwest  Level Estimated
09:54AM 46.5924 -2.2299 223° Southwest  Level Estimated
09:55AM 46.5182 -2.3315 223° Southwest  Level Estimated
09:56AM 46.4438 -2.4328 223° Southwest  Level Estimated
09:57AM 46.3693 -2.5339 223° Southwest  Level Estimated
09:58AM 46.2948 -2.6347 223° Southwest  Level Estimated
09:59AM 46.2201 -2.7352 223° Southwest  Level Estimated
10:00AM 46.1454 -2.8355 223° Southwest  Level Estimated
10:01AM 46.0706 -2.9354 223° Southwest  Level Estimated
10:02AM 45.9957 -3.0351 223° Southwest  Level Estimated
10:03AM 45.9207 -3.1346 223° Southwest  Level Estimated
10:04AM 45.8457 -3.2337 223° Southwest  Level Estimated
10:05AM 45.7705 -3.3326 222° Southwest  Level Estimated
10:06AM 45.6953 -3.4313 222° Southwest  Level Estimated
10:07AM 45.6200 -3.5296 222° Southwest  Level Estimated
10:08AM 45.5446 -3.6277 222° Southwest  Level Estimated
10:09AM 45.4691 -3.7255 222° Southwest  Level Estimated
10:10AM 45.3935 -3.8231 222° Southwest  Level Estimated
10:11AM 45.3178 -3.9204 222° Southwest  Level Estimated
10:12AM 45.2421 -4.0175 222° Southwest  Level Estimated
10:13AM 45.1663 -4.1143 222° Southwest  Level Estimated
10:14AM 45.0904 -4.2108 222° Southwest  Level Estimated
10:15AM 45.0144 -4.3071 222° Southwest  Level Estimated
10:16AM 44.9383 -4.4031 222° Southwest  Level Estimated
10:17AM 44.8622 -4.4989 222° Southwest  Level Estimated
10:18AM 44.7859 -4.5944 222° Southwest  Level Estimated
10:19AM 44.7096 -4.6897 222° Southwest  Level Estimated
10:20AM 44.6333 -4.7847 221° Southwest  Level Estimated
10:21AM 44.5568 -4.8795 221° Southwest  Level Estimated
10:22AM 44.4803 -4.9740 221° Southwest  Level Estimated
10:23AM 44.4036 -5.0683 221° Southwest  Level Estimated
10:24AM 44.3269 -5.1623 221° Southwest  Level Estimated
10:25AM 44.2502 -5.2561 221° Southwest  Level Estimated
10:26AM 44.1733 -5.3496 221° Southwest  Level Estimated
10:27AM 44.0964 -5.4429 221° Southwest  Level Estimated
10:28AM 44.0194 -5.5359 221° Southwest  Level Estimated
10:29AM 43.9423 -5.6287 221° Southwest  Level Estimated
10:30AM 43.8652 -5.7213 221° Southwest  Level Estimated
10:31AM 43.7879 -5.8136 221° Southwest  Level Estimated
10:32AM 43.7106 -5.9057 221° Southwest  Level Estimated
10:33AM 43.6333 -5.9976 221° Southwest  Level Estimated
10:34AM 43.5558 -6.0892 221° Southwest  Level Estimated
10:35AM 43.4783 -6.1806 220° Southwest  Level Estimated
10:36AM 43.4007 -6.2717 220° Southwest  Level Estimated
10:37AM 43.3230 -6.3626 220° Southwest  Level Estimated
10:38AM 43.2453 -6.4533 220° Southwest  Level Estimated
10:39AM 43.1675 -6.5437 220° Southwest  Level Estimated
10:40AM 43.0896 -6.6340 220° Southwest  Level Estimated
10:41AM 43.0117 -6.7239 220° Southwest  Level Estimated
10:42AM 42.9336 -6.8137 220° Southwest  Level Estimated
10:43AM 42.8555 -6.9032 220° Southwest  Level Estimated
10:44AM 42.7774 -6.9925 220° Southwest  Level Estimated
10:45AM 42.6992 -7.0816 220° Southwest  Level Estimated
10:46AM 42.6208 -7.1705 220° Southwest  Level Estimated
10:47AM 42.5425 -7.2591 220° Southwest  Level Estimated
10:48AM 42.4641 -7.3475 220° Southwest  Level Estimated
10:49AM 42.3856 -7.4357 220° Southwest  Level Estimated
10:50AM 42.3070 -7.5237 220° Southwest  Level Estimated
10:51AM 42.2283 -7.6114 220° Southwest  Level Estimated
10:52AM 42.1496 -7.6990 219° Southwest  Level Estimated
10:53AM 42.0709 -7.7863 219° Southwest  Level Estimated
10:54AM 41.9920 -7.8734 219° Southwest  Level Estimated
10:55AM 41.9131 -7.9602 219° Southwest  Level Estimated
10:56AM 41.8342 -8.0469 219° Southwest  Level Estimated
10:57AM 41.7551 -8.1334 219° Southwest  Level Estimated
10:58AM 41.6760 -8.2196 219° Southwest  Level Estimated
10:59AM 41.5969 -8.3056 219° Southwest  Level Estimated
11:00AM 41.5176 -8.3915 219° Southwest  Level Estimated
11:01AM 41.4384 -8.4771 219° Southwest  Level Estimated
11:02AM 41.3590 -8.5625 219° Southwest  Level Estimated
11:03AM 41.2796 -8.6476 219° Southwest  Level Estimated
11:04AM 41.2001 -8.7326 39° Northeast  Level Estimated
11:05AM 41.2796 -8.6476 219° Southwest  Level Estimated
11:06AM 41.2001 -8.7326 39° Northeast  Level Estimated
11:07AM 41.2796 -8.6476 219° Southwest  Level Estimated
11:08AM 41.2001 -8.7326 39° Northeast  Level Estimated
11:09AM 41.2796 -8.6476 219° Southwest  Level Estimated
11:10AM 41.2001 -8.7326 39° Northeast  Level Estimated
11:11AM 41.2796 -8.6476 219° Southwest  Level Estimated
11:12AM 41.2001 -8.7326 39° Northeast  Level Estimated
11:13AM 41.2796 -8.6476 219° Southwest  Level Estimated
11:14AM 41.2001 -8.7326 39° Northeast  Level Estimated
11:15AM 41.2796 -8.6476 219° Southwest  Level Estimated
11:16AM 41.2001 -8.7326 39° Northeast  Level Estimated
11:17AM 41.2796 -8.6476 39° Northeast  Level Estimated